createdAt,value
2019-01-12T00:00:59.342Z,1008.94
2019-01-12T00:01:59.348Z,1008.92
2019-01-12T00:02:59.331Z,1008.88
2019-01-12T00:03:59.331Z,1008.91
2019-01-12T00:04:59.315Z,1008.95
2019-01-12T00:05:59.288Z,1008.94
2019-01-12T00:06:59.279Z,1008.93
2019-01-12T00:07:59.269Z,1008.91
2019-01-12T00:08:59.249Z,1008.88
2019-01-12T00:09:59.272Z,1008.97
2019-01-12T00:10:59.233Z,1008.97
2019-01-12T00:11:59.220Z,1008.99
2019-01-12T00:12:59.228Z,1009.00
2019-01-12T00:13:59.197Z,1009.02
2019-01-12T00:14:59.222Z,1008.99
2019-01-12T00:15:59.189Z,1009.04
2019-01-12T00:16:59.164Z,1009.13
2019-01-12T00:17:59.180Z,1009.05
2019-01-12T00:18:59.140Z,1008.97
2019-01-12T00:19:59.133Z,1009.06
2019-01-12T00:20:59.137Z,1009.02
2019-01-12T00:21:59.114Z,1009.02
2019-01-12T00:22:59.101Z,1009.01
2019-01-12T00:23:59.103Z,1009.06
2019-01-12T00:24:59.081Z,1009.11
2019-01-12T00:25:59.068Z,1009.04
2019-01-12T00:26:59.079Z,1009.09
2019-01-12T00:27:59.058Z,1009.04
2019-01-12T00:28:59.053Z,1009.09
2019-01-12T00:29:59.014Z,1009.01
2019-01-12T00:30:59.012Z,1009.00
2019-01-12T00:31:59.012Z,1009.00
2019-01-12T00:32:59.044Z,1009.07
2019-01-12T00:33:58.978Z,1009.05
2019-01-12T00:34:59.000Z,1009.07
2019-01-12T00:35:58.952Z,1009.06
2019-01-12T00:36:58.971Z,1009.07
2019-01-12T00:37:58.993Z,1009.13
2019-01-12T00:38:58.927Z,1009.12
2019-01-12T00:39:58.919Z,1009.07
2019-01-12T00:40:58.943Z,1009.10
2019-01-12T00:41:58.908Z,1009.13
2019-01-12T00:42:58.884Z,1009.11
2019-01-12T00:43:58.918Z,1009.10
2019-01-12T00:44:58.862Z,1009.07
2019-01-12T00:45:58.879Z,1009.14
2019-01-12T00:46:58.849Z,1009.09
2019-01-12T00:47:58.852Z,1009.10
2019-01-12T00:48:58.827Z,1009.19
2019-01-12T00:49:58.808Z,1009.21
2019-01-12T00:50:58.806Z,1009.14
2019-01-12T00:51:58.825Z,1009.17
2019-01-12T00:52:58.808Z,1009.15
2019-01-12T00:53:58.778Z,1009.21
2019-01-12T00:54:58.772Z,1009.20
2019-01-12T00:55:58.747Z,1009.19
2019-01-12T00:56:58.798Z,1009.28
2019-01-12T00:57:58.750Z,1009.25
2019-01-12T00:58:58.732Z,1009.24
2019-01-12T00:59:58.718Z,1009.28
2019-01-12T01:00:58.741Z,1009.26
2019-01-12T01:01:58.694Z,1009.29
2019-01-12T01:02:58.697Z,1009.26
2019-01-12T01:03:58.680Z,1009.29
2019-01-12T01:04:58.667Z,1009.27
2019-01-12T01:05:59.407Z,1009.31
2019-01-12T01:06:58.622Z,1009.30
2019-01-12T01:07:58.633Z,1009.26
2019-01-12T01:08:58.599Z,1009.35
2019-01-12T01:09:58.588Z,1009.37
2019-01-12T01:10:58.575Z,1009.36
2019-01-12T01:11:58.559Z,1009.38
2019-01-12T01:12:58.591Z,1009.42
2019-01-12T01:13:58.545Z,1009.43
2019-01-12T01:14:58.528Z,1009.47
2019-01-12T01:15:58.531Z,1009.44
2019-01-12T01:16:58.512Z,1009.45
2019-01-12T01:17:58.494Z,1009.44
2019-01-12T01:18:58.503Z,1009.47
2019-01-12T01:19:58.504Z,1009.49
2019-01-12T01:20:58.517Z,1009.48
2019-01-12T01:21:58.464Z,1009.53
2019-01-12T01:22:58.452Z,1009.48
2019-01-12T01:23:58.430Z,1009.48
2019-01-12T01:24:58.453Z,1009.46
2019-01-12T01:25:58.434Z,1009.43
2019-01-12T01:26:58.426Z,1009.46
2019-01-12T01:27:58.417Z,1009.48
2019-01-12T01:28:58.377Z,1009.49
2019-01-12T01:29:58.365Z,1009.49
2019-01-12T01:30:58.360Z,1009.54
2019-01-12T01:31:58.343Z,1009.56
2019-01-12T01:32:58.360Z,1009.56
2019-01-12T01:33:58.320Z,1009.47
2019-01-12T01:34:58.313Z,1009.58
2019-01-12T01:35:58.300Z,1009.55
2019-01-12T01:36:58.341Z,1009.48
2019-01-12T01:37:58.274Z,1009.48
2019-01-12T01:38:58.278Z,1009.57
2019-01-12T01:39:58.252Z,1009.57
2019-01-12T01:40:58.253Z,1009.62
2019-01-12T01:41:58.254Z,1009.63
2019-01-12T01:42:58.248Z,1009.63
2019-01-12T01:43:58.219Z,1009.65
2019-01-12T01:44:58.215Z,1009.70
2019-01-12T01:45:58.193Z,1009.74
2019-01-12T01:46:58.194Z,1009.75
2019-01-12T01:47:58.189Z,1009.68
2019-01-12T01:48:58.216Z,1009.73
2019-01-12T01:49:58.147Z,1009.67
2019-01-12T01:50:58.135Z,1009.69
2019-01-12T01:51:58.129Z,1009.72
2019-01-12T01:52:58.115Z,1009.76
2019-01-12T01:53:58.111Z,1009.75
2019-01-12T01:54:58.114Z,1009.73
2019-01-12T01:55:58.092Z,1009.79
2019-01-12T01:56:58.076Z,1009.78
2019-01-12T01:57:58.072Z,1009.79
2019-01-12T01:58:58.077Z,1009.78
2019-01-12T01:59:58.049Z,1009.81
2019-01-12T02:00:58.047Z,1009.80
2019-01-12T02:01:58.022Z,1009.75
2019-01-12T02:02:58.015Z,1009.80
2019-01-12T02:03:57.994Z,1009.82
2019-01-12T02:04:58.012Z,1009.85
2019-01-12T02:05:57.980Z,1009.82
2019-01-12T02:06:57.963Z,1009.89
2019-01-12T02:07:57.970Z,1009.84
2019-01-12T02:08:57.938Z,1009.83
2019-01-12T02:09:57.947Z,1009.83
2019-01-12T02:10:57.936Z,1009.98
2019-01-12T02:11:57.912Z,1009.81
2019-01-12T02:12:57.899Z,1009.80
2019-01-12T02:13:57.885Z,1009.88
2019-01-12T02:14:57.871Z,1009.86
2019-01-12T02:15:57.885Z,1009.77
2019-01-12T02:16:57.854Z,1009.82
2019-01-12T02:17:57.882Z,1009.80
2019-01-12T02:18:57.828Z,1009.79
2019-01-12T02:19:57.823Z,1009.83
2019-01-12T02:20:57.809Z,1009.72
2019-01-12T02:21:57.795Z,1009.83
2019-01-12T02:22:57.802Z,1009.83
2019-01-12T02:23:57.808Z,1009.83
2019-01-12T02:25:00.101Z,1009.83
2019-01-12T02:25:57.749Z,1009.80
2019-01-12T02:26:57.739Z,1009.84
2019-01-12T02:27:57.726Z,1009.84
2019-01-12T02:28:57.734Z,1009.77
2019-01-12T02:29:57.740Z,1009.76
2019-01-12T02:30:57.703Z,1009.81
2019-01-12T02:31:57.687Z,1009.76
2019-01-12T02:32:57.676Z,1009.74
2019-01-12T02:33:57.667Z,1009.71
2019-01-12T02:34:57.682Z,1009.74
2019-01-12T02:36:02.928Z,1009.69
2019-01-12T02:36:57.635Z,1009.72
2019-01-12T02:37:57.621Z,1009.77
2019-01-12T02:38:57.635Z,1009.73
2019-01-12T02:39:57.609Z,1009.70
2019-01-12T02:40:57.599Z,1009.65
2019-01-12T02:41:57.631Z,1009.60
2019-01-12T02:42:57.570Z,1009.67
2019-01-12T02:43:57.552Z,1009.66
2019-01-12T02:44:57.547Z,1009.69
2019-01-12T02:45:57.544Z,1009.69
2019-01-12T02:46:57.518Z,1009.65
2019-01-12T02:47:57.538Z,1009.66
2019-01-12T02:48:57.499Z,1009.69
2019-01-12T02:49:57.482Z,1009.64
2019-01-12T02:50:57.474Z,1009.65
2019-01-12T02:51:57.484Z,1009.59
2019-01-12T02:52:57.497Z,1009.62
2019-01-12T02:53:57.447Z,1009.65
2019-01-12T02:54:57.437Z,1009.65
2019-01-12T02:55:57.453Z,1009.59
2019-01-12T02:56:57.421Z,1009.58
2019-01-12T02:57:57.431Z,1009.54
2019-01-12T02:58:57.406Z,1009.56
2019-01-12T02:59:57.399Z,1009.54
2019-01-12T03:00:57.365Z,1009.58
2019-01-12T03:01:57.368Z,1009.66
2019-01-12T03:02:57.351Z,1009.64
2019-01-12T03:03:57.336Z,1009.63
2019-01-12T03:04:57.319Z,1009.63
2019-01-12T03:05:57.329Z,1009.69
2019-01-12T03:06:57.295Z,1009.64
2019-01-12T03:07:57.291Z,1009.58
2019-01-12T03:08:57.305Z,1009.62
2019-01-12T03:09:57.288Z,1009.60
2019-01-12T03:10:57.288Z,1009.58
2019-01-12T03:11:57.247Z,1009.54
2019-01-12T03:12:57.277Z,1009.56
2019-01-12T03:13:57.223Z,1009.54
2019-01-12T03:14:57.251Z,1009.57
2019-01-12T03:15:57.197Z,1009.53
2019-01-12T03:16:57.190Z,1009.59
2019-01-12T03:17:57.185Z,1009.54
2019-01-12T03:18:57.172Z,1009.57
2019-01-12T03:19:57.158Z,1009.57
2019-01-12T03:20:57.173Z,1009.55
2019-01-12T03:21:57.128Z,1009.56
2019-01-12T03:22:57.140Z,1009.57
2019-01-12T03:23:57.117Z,1009.54
2019-01-12T03:24:57.102Z,1009.52
2019-01-12T03:25:57.084Z,1009.50
2019-01-12T03:26:57.130Z,1009.50
2019-01-12T03:27:57.065Z,1009.48
2019-01-12T03:28:57.074Z,1009.47
2019-01-12T03:29:57.051Z,1009.54
2019-01-12T03:30:57.052Z,1009.53
2019-01-12T03:31:57.035Z,1009.49
2019-01-12T03:32:57.018Z,1009.50
2019-01-12T03:33:57.048Z,1009.53
2019-01-12T03:34:56.997Z,1009.58
2019-01-12T03:35:56.978Z,1009.56
2019-01-12T03:36:57.014Z,1009.50
2019-01-12T03:37:56.966Z,1009.53
2019-01-12T03:38:56.954Z,1009.48
2019-01-12T03:39:56.966Z,1009.44
2019-01-12T03:40:56.932Z,1009.47
2019-01-12T03:41:56.910Z,1009.49
2019-01-12T03:42:56.893Z,1009.49
2019-01-12T03:43:56.901Z,1009.39
2019-01-12T03:44:56.893Z,1009.40
2019-01-12T03:45:56.901Z,1009.45
2019-01-12T03:46:56.857Z,1009.39
2019-01-12T03:47:56.849Z,1009.39
2019-01-12T03:48:56.833Z,1009.39
2019-01-12T03:49:56.831Z,1009.43
2019-01-12T03:50:56.846Z,1009.40
2019-01-12T03:51:56.815Z,1009.42
2019-01-12T03:52:56.781Z,1009.42
2019-01-12T03:53:56.780Z,1009.38
2019-01-12T03:54:56.772Z,1009.40
2019-01-12T03:55:56.760Z,1009.36
2019-01-12T03:56:56.767Z,1009.40
2019-01-12T03:57:56.747Z,1009.37
2019-01-12T03:58:56.719Z,1009.45
2019-01-12T03:59:56.716Z,1009.40
2019-01-12T04:00:56.713Z,1009.38
2019-01-12T04:01:56.723Z,1009.38
2019-01-12T04:02:56.706Z,1009.38
2019-01-12T04:03:56.676Z,1009.38
2019-01-12T04:04:56.654Z,1009.37
2019-01-12T04:05:56.660Z,1009.42
2019-01-12T04:06:56.640Z,1009.39
2019-01-12T04:07:56.692Z,1009.34
2019-01-12T04:08:56.621Z,1009.37
2019-01-12T04:09:56.594Z,1009.30
2019-01-12T04:10:56.593Z,1009.28
2019-01-12T04:11:56.574Z,1009.26
2019-01-12T04:12:56.578Z,1009.31
2019-01-12T04:13:56.586Z,1009.29
2019-01-12T04:14:56.579Z,1009.23
2019-01-12T04:15:56.544Z,1009.18
2019-01-12T04:16:56.534Z,1009.22
2019-01-12T04:17:56.515Z,1009.24
2019-01-12T04:18:56.511Z,1009.19
2019-01-12T04:19:56.514Z,1009.21
2019-01-12T04:20:56.531Z,1009.25
2019-01-12T04:21:56.466Z,1009.26
2019-01-12T04:22:56.464Z,1009.16
2019-01-12T04:23:56.455Z,1009.22
2019-01-12T04:24:56.447Z,1009.26
2019-01-12T04:25:56.448Z,1009.26
2019-01-12T04:26:56.411Z,1009.27
2019-01-12T04:27:56.404Z,1009.25
2019-01-12T04:28:56.386Z,1009.21
2019-01-12T04:29:56.393Z,1009.19
2019-01-12T04:30:56.611Z,1009.25
2019-01-12T04:31:56.370Z,1009.18
2019-01-12T04:32:56.348Z,1009.20
2019-01-12T04:33:56.346Z,1009.17
2019-01-12T04:34:56.322Z,1009.21
2019-01-12T04:35:56.325Z,1009.17
2019-01-12T04:36:56.334Z,1009.10
2019-01-12T04:37:56.291Z,1009.12
2019-01-12T04:38:56.309Z,1009.12
2019-01-12T04:39:56.266Z,1009.12
2019-01-12T04:40:56.258Z,1009.15
2019-01-12T04:41:56.250Z,1009.10
2019-01-12T04:42:56.242Z,1009.12
2019-01-12T04:43:56.252Z,1009.11
2019-01-12T04:44:56.232Z,1009.12
2019-01-12T04:45:56.238Z,1009.10
2019-01-12T04:46:56.193Z,1009.11
2019-01-12T04:47:56.194Z,1009.12
2019-01-12T04:48:56.171Z,1009.09
2019-01-12T04:49:56.161Z,1009.11
2019-01-12T04:50:56.153Z,1009.09
2019-01-12T04:51:56.176Z,1009.08
2019-01-12T04:52:56.136Z,1009.08
2019-01-12T04:53:56.163Z,1009.12
2019-01-12T04:54:56.100Z,1009.07
2019-01-12T04:55:56.093Z,1009.13
2019-01-12T04:56:56.114Z,1009.08
2019-01-12T04:57:56.070Z,1009.12
2019-01-12T04:58:56.085Z,1009.08
2019-01-12T04:59:56.044Z,1009.08
2019-01-12T05:00:56.045Z,1009.08
2019-01-12T05:01:56.028Z,1009.06
2019-01-12T05:02:56.017Z,1009.07
2019-01-12T05:03:56.022Z,1009.10
2019-01-12T05:04:56.027Z,1009.13
2019-01-12T05:05:55.991Z,1009.13
2019-01-12T05:07:16.986Z,1009.11
2019-01-12T05:07:55.966Z,1009.16
2019-01-12T05:08:55.943Z,1009.19
2019-01-12T05:09:55.954Z,1009.08
2019-01-12T05:10:55.973Z,1009.09
2019-01-12T05:11:55.911Z,1009.17
2019-01-12T05:12:55.911Z,1009.17
2019-01-12T05:13:55.899Z,1009.13
2019-01-12T05:14:55.883Z,1009.16
2019-01-12T05:15:55.884Z,1009.11
2019-01-12T05:16:55.885Z,1009.14
2019-01-12T05:17:55.847Z,1009.10
2019-01-12T05:18:55.840Z,1009.15
2019-01-12T05:19:55.856Z,1009.10
2019-01-12T05:20:55.811Z,1009.10
2019-01-12T05:21:55.840Z,1009.09
2019-01-12T05:22:55.790Z,1009.13
2019-01-12T05:23:55.782Z,1009.12
2019-01-12T05:24:55.788Z,1009.15
2019-01-12T05:25:55.765Z,1009.16
2019-01-12T05:26:55.765Z,1009.15
2019-01-12T05:27:55.785Z,1009.13
2019-01-12T05:28:55.743Z,1009.14
2019-01-12T05:29:55.715Z,1009.15
2019-01-12T05:30:55.719Z,1009.11
2019-01-12T05:31:55.709Z,1009.14
2019-01-12T05:32:55.726Z,1009.16
2019-01-12T05:33:55.677Z,1009.12
2019-01-12T05:34:55.679Z,1009.11
2019-01-12T05:35:55.658Z,1009.10
2019-01-12T05:36:55.654Z,1009.06
2019-01-12T05:37:55.662Z,1009.04
2019-01-12T05:38:55.621Z,1009.09
2019-01-12T05:39:55.620Z,1009.10
2019-01-12T05:40:55.602Z,1009.12
2019-01-12T05:41:55.597Z,1009.06
2019-01-12T05:42:55.575Z,1009.06
2019-01-12T05:43:55.588Z,1009.10
2019-01-12T05:44:55.556Z,1009.10
2019-01-12T05:45:55.561Z,1009.12
2019-01-12T05:46:55.536Z,1009.07
2019-01-12T05:47:55.520Z,1009.06
2019-01-12T05:48:55.527Z,1009.08
2019-01-12T05:49:55.533Z,1009.09
2019-01-12T05:50:55.507Z,1009.10
2019-01-12T05:51:55.477Z,1009.06
2019-01-12T05:52:55.465Z,1009.09
2019-01-12T05:53:55.447Z,1009.09
2019-01-12T05:54:55.452Z,1009.11
2019-01-12T05:55:57.967Z,1009.13
2019-01-12T05:56:55.435Z,1009.07
2019-01-12T05:57:55.411Z,1009.06
2019-01-12T05:58:55.396Z,1008.99
2019-01-12T05:59:55.384Z,1008.98
2019-01-12T06:00:55.397Z,1008.97
2019-01-12T06:01:55.390Z,1008.99
2019-01-12T06:02:55.366Z,1008.98
2019-01-12T06:03:55.342Z,1008.99
2019-01-12T06:04:55.329Z,1008.96
2019-01-12T06:05:55.345Z,1008.99
2019-01-12T06:06:55.308Z,1009.00
2019-01-12T06:07:55.380Z,1009.03
2019-01-12T06:08:55.295Z,1009.01
2019-01-12T06:09:55.274Z,1009.03
2019-01-12T06:10:55.265Z,1009.03
2019-01-12T06:11:55.287Z,1009.05
2019-01-12T06:12:55.283Z,1009.08
2019-01-12T06:13:55.442Z,1009.12
2019-01-12T06:14:55.872Z,1009.10
2019-01-12T06:15:55.220Z,1009.12
2019-01-12T06:16:55.203Z,1009.12
2019-01-12T06:17:55.238Z,1009.04
2019-01-12T06:18:55.197Z,1009.09
2019-01-12T06:19:55.174Z,1009.12
2019-01-12T06:20:55.159Z,1009.13
2019-01-12T06:21:55.150Z,1009.14
2019-01-12T06:22:55.155Z,1009.14
2019-01-12T06:23:55.153Z,1009.15
2019-01-12T06:24:55.112Z,1009.12
2019-01-12T06:25:55.106Z,1009.16
2019-01-12T06:26:55.111Z,1009.14
2019-01-12T06:27:55.078Z,1009.15
2019-01-12T06:28:55.083Z,1009.12
2019-01-12T06:29:55.096Z,1009.13
2019-01-12T06:30:55.054Z,1009.16
2019-01-12T06:31:55.061Z,1009.18
2019-01-12T06:32:55.028Z,1009.21
2019-01-12T06:33:55.019Z,1009.16
2019-01-12T06:34:55.031Z,1009.19
2019-01-12T06:35:55.013Z,1009.15
2019-01-12T06:36:54.993Z,1009.12
2019-01-12T06:37:54.979Z,1009.17
2019-01-12T06:38:54.957Z,1009.21
2019-01-12T06:39:55.018Z,1009.19
2019-01-12T06:40:54.958Z,1009.14
2019-01-12T06:41:54.950Z,1009.15
2019-01-12T06:42:54.919Z,1009.14
2019-01-12T06:43:54.920Z,1009.13
2019-01-12T06:44:54.904Z,1009.16
2019-01-12T06:45:54.914Z,1009.12
2019-01-12T06:46:54.868Z,1009.14
2019-01-12T06:47:54.858Z,1009.14
2019-01-12T06:48:54.873Z,1009.13
2019-01-12T06:49:54.849Z,1009.16
2019-01-12T06:50:54.867Z,1009.12
2019-01-12T06:51:54.818Z,1009.18
2019-01-12T06:52:54.826Z,1009.14
2019-01-12T06:53:54.799Z,1009.12
2019-01-12T06:54:54.800Z,1009.09
2019-01-12T06:55:54.774Z,1009.10
2019-01-12T06:56:54.796Z,1009.11
2019-01-12T06:57:54.757Z,1009.12
2019-01-12T06:58:54.756Z,1009.13
2019-01-12T06:59:54.758Z,1009.13
2019-01-12T07:00:54.737Z,1009.09
2019-01-12T07:01:54.710Z,1009.15
2019-01-12T07:02:54.720Z,1009.14
2019-01-12T07:03:54.701Z,1009.17
2019-01-12T07:04:54.693Z,1009.05
2019-01-12T07:05:54.673Z,1009.04
2019-01-12T07:06:54.667Z,1008.99
2019-01-12T07:08:02.469Z,1009.06
2019-01-12T07:08:54.637Z,1009.02
2019-01-12T07:09:54.846Z,1009.01
2019-01-12T07:10:54.624Z,1009.02
2019-01-12T07:11:54.606Z,1009.02
2019-01-12T07:12:54.970Z,1009.02
2019-01-12T07:13:54.585Z,1009.05
2019-01-12T07:14:54.566Z,1009.07
2019-01-12T07:15:54.550Z,1009.04
2019-01-12T07:16:54.547Z,1009.03
2019-01-12T07:17:54.547Z,1009.01
2019-01-12T07:18:54.561Z,1009.05
2019-01-12T07:19:54.509Z,1009.12
2019-01-12T07:20:54.510Z,1009.06
2019-01-12T07:21:54.490Z,1009.07
2019-01-12T07:22:54.478Z,1009.09
2019-01-12T07:23:54.484Z,1009.09
2019-01-12T07:24:54.495Z,1009.09
2019-01-12T07:25:54.456Z,1009.10
2019-01-12T07:26:54.437Z,1009.07
2019-01-12T07:27:54.449Z,1009.08
2019-01-12T07:28:54.413Z,1009.10
2019-01-12T07:29:54.487Z,1009.06
2019-01-12T07:30:54.518Z,1009.13
2019-01-12T07:31:54.387Z,1009.11
2019-01-12T07:32:54.376Z,1009.15
2019-01-12T07:33:54.367Z,1009.13
2019-01-12T07:34:54.380Z,1009.17
2019-01-12T07:35:54.350Z,1009.14
2019-01-12T07:36:54.334Z,1009.18
2019-01-12T07:37:54.332Z,1009.06
2019-01-12T07:38:54.304Z,1009.09
2019-01-12T07:39:54.291Z,1009.12
2019-01-12T07:40:54.374Z,1009.13
2019-01-12T07:41:54.279Z,1009.09
2019-01-12T07:42:54.297Z,1009.11
2019-01-12T07:43:54.260Z,1009.07
2019-01-12T07:44:54.277Z,1009.12
2019-01-12T07:45:54.229Z,1009.10
2019-01-12T07:46:54.263Z,1009.07
2019-01-12T07:47:54.213Z,1009.15
2019-01-12T07:48:54.220Z,1009.14
2019-01-12T07:49:54.241Z,1009.14
2019-01-12T07:50:54.187Z,1009.28
2019-01-12T07:51:54.163Z,1009.14
2019-01-12T07:52:54.164Z,1009.09
2019-01-12T07:53:54.173Z,1009.09
2019-01-12T07:54:54.125Z,1009.04
2019-01-12T07:55:54.226Z,1009.06
2019-01-12T07:56:54.107Z,1009.12
2019-01-12T07:57:54.109Z,1009.05
2019-01-12T07:58:54.100Z,1009.02
2019-01-12T07:59:54.139Z,1009.08
2019-01-12T08:00:54.066Z,1009.06
2019-01-12T08:01:54.054Z,1009.04
2019-01-12T08:02:54.040Z,1008.97
2019-01-12T08:03:54.091Z,1009.02
2019-01-12T08:04:54.043Z,1009.02
2019-01-12T08:05:54.013Z,1009.04
2019-01-12T08:06:54.002Z,1009.00
2019-01-12T08:07:54.003Z,1009.02
2019-01-12T08:08:53.979Z,1008.96
2019-01-12T08:09:54.016Z,1008.95
2019-01-12T08:10:53.964Z,1008.92
2019-01-12T08:11:53.940Z,1008.91
2019-01-12T08:12:53.936Z,1008.89
2019-01-12T08:13:53.925Z,1008.89
2019-01-12T08:14:53.922Z,1008.88
2019-01-12T08:15:53.921Z,1008.85
2019-01-12T08:16:53.924Z,1008.87
2019-01-12T08:17:53.879Z,1008.81
2019-01-12T08:18:53.879Z,1008.81
2019-01-12T08:19:53.855Z,1008.85
2019-01-12T08:20:53.888Z,1008.82
2019-01-12T08:21:53.847Z,1008.79
2019-01-12T08:22:53.868Z,1008.75
2019-01-12T08:23:53.810Z,1008.75
2019-01-12T08:24:53.807Z,1008.82
2019-01-12T08:25:53.795Z,1008.75
2019-01-12T08:26:53.821Z,1008.75
2019-01-12T08:27:53.777Z,1008.69
2019-01-12T08:28:53.778Z,1008.66
2019-01-12T08:29:53.746Z,1008.67
2019-01-12T08:30:53.834Z,1008.70
2019-01-12T08:31:53.780Z,1008.65
2019-01-12T08:32:53.711Z,1008.64
2019-01-12T08:33:53.723Z,1008.63
2019-01-12T08:34:53.718Z,1008.64
2019-01-12T08:35:53.682Z,1008.62
2019-01-12T08:36:54.115Z,1008.60
2019-01-12T08:37:53.661Z,1008.59
2019-01-12T08:38:53.657Z,1008.65
2019-01-12T08:39:53.663Z,1008.58
2019-01-12T08:40:53.629Z,1008.59
2019-01-12T08:41:53.635Z,1008.62
2019-01-12T08:42:53.643Z,1008.56
2019-01-12T08:43:53.601Z,1008.54
2019-01-12T08:44:53.589Z,1008.51
2019-01-12T08:45:53.597Z,1008.50
2019-01-12T08:46:53.566Z,1008.46
2019-01-12T08:47:53.619Z,1008.46
2019-01-12T08:48:53.537Z,1008.41
2019-01-12T08:49:53.532Z,1008.39
2019-01-12T08:50:53.525Z,1008.41
2019-01-12T08:51:53.506Z,1008.41
2019-01-12T08:52:53.529Z,1008.37
2019-01-12T08:53:54.122Z,1008.39
2019-01-12T08:54:53.469Z,1008.31
2019-01-12T08:55:53.473Z,1008.35
2019-01-12T08:56:53.456Z,1008.38
2019-01-12T08:57:53.483Z,1008.36
2019-01-12T08:58:53.434Z,1008.33
2019-01-12T08:59:53.485Z,1008.34
2019-01-12T09:00:53.416Z,1008.35
2019-01-12T09:01:53.800Z,1008.29
2019-01-12T09:02:53.497Z,1008.30
2019-01-12T09:03:53.900Z,1008.29
2019-01-12T09:04:53.376Z,1008.28
2019-01-12T09:05:53.435Z,1008.30
2019-01-12T09:06:53.351Z,1008.33
2019-01-12T09:07:53.604Z,1008.32
2019-01-12T09:08:53.326Z,1008.32
2019-01-12T09:09:53.306Z,1008.30
2019-01-12T09:10:53.319Z,1008.28
2019-01-12T09:11:53.278Z,1008.22
2019-01-12T09:12:53.393Z,1008.23
2019-01-12T09:13:53.275Z,1008.21
2019-01-12T09:14:53.256Z,1008.17
2019-01-12T09:15:53.247Z,1008.16
2019-01-12T09:16:54.873Z,1008.15
2019-01-12T09:17:53.289Z,1008.14
2019-01-12T09:18:53.252Z,1008.11
2019-01-12T09:19:53.205Z,1008.08
2019-01-12T09:20:53.234Z,1008.09
2019-01-12T09:21:53.186Z,1008.06
2019-01-12T09:22:53.186Z,1008.04
2019-01-12T09:23:53.243Z,1008.05
2019-01-12T09:24:53.170Z,1008.01
2019-01-12T09:25:53.152Z,1008.02
2019-01-12T09:26:53.117Z,1008.08
2019-01-12T09:27:53.121Z,1008.01
2019-01-12T09:28:53.154Z,1008.04
2019-01-12T09:29:53.145Z,1007.98
2019-01-12T09:30:53.091Z,1007.94
2019-01-12T09:31:53.079Z,1007.97
2019-01-12T09:32:53.074Z,1007.97
2019-01-12T09:33:53.064Z,1007.96
2019-01-12T09:34:53.030Z,1007.98
2019-01-12T09:35:53.076Z,1007.97
2019-01-12T09:36:53.022Z,1007.94
2019-01-12T09:37:53.007Z,1007.96
2019-01-12T09:38:53.000Z,1007.92
2019-01-12T09:39:53.530Z,1007.91
2019-01-12T09:40:52.978Z,1007.89
2019-01-12T09:41:52.961Z,1007.85
2019-01-12T09:42:52.955Z,1007.85
2019-01-12T09:43:52.976Z,1007.85
2019-01-12T09:44:52.918Z,1007.80
2019-01-12T09:45:52.955Z,1007.79
2019-01-12T09:46:52.921Z,1007.80
2019-01-12T09:47:52.943Z,1007.84
2019-01-12T09:48:52.894Z,1007.81
2019-01-12T09:49:52.910Z,1007.76
2019-01-12T09:50:52.864Z,1007.75
2019-01-12T09:51:52.875Z,1007.70
2019-01-12T09:52:52.862Z,1007.76
2019-01-12T09:53:52.929Z,1007.76
2019-01-12T09:54:52.940Z,1007.73
2019-01-12T09:55:52.843Z,1007.74
2019-01-12T09:56:52.834Z,1007.66
2019-01-12T09:57:52.789Z,1007.62
2019-01-12T09:58:52.813Z,1007.58
2019-01-12T09:59:52.796Z,1007.57
2019-01-12T10:00:52.781Z,1007.65
2019-01-12T10:01:52.797Z,1007.56
2019-01-12T10:02:52.722Z,1007.59
2019-01-12T10:03:52.722Z,1007.50
2019-01-12T10:04:52.720Z,1007.56
2019-01-12T10:05:52.703Z,1007.55
2019-01-12T10:06:52.735Z,1007.51
2019-01-12T10:07:52.668Z,1007.48
2019-01-12T10:08:52.658Z,1007.44
2019-01-12T10:09:52.655Z,1007.38
2019-01-12T10:10:52.631Z,1007.37
2019-01-12T10:11:52.705Z,1007.35
2019-01-12T10:12:52.649Z,1007.36
2019-01-12T10:13:52.635Z,1007.28
2019-01-12T10:14:52.622Z,1007.27
2019-01-12T10:15:52.595Z,1007.29
2019-01-12T10:16:52.566Z,1007.25
2019-01-12T10:17:52.618Z,1007.26
2019-01-12T10:18:52.553Z,1007.19
2019-01-12T10:19:52.589Z,1007.20
2019-01-12T10:20:52.569Z,1007.17
2019-01-12T10:21:52.554Z,1007.15
2019-01-12T10:22:52.550Z,1007.16
2019-01-12T10:23:55.648Z,1007.11
2019-01-12T10:24:52.488Z,1007.14
2019-01-12T10:25:52.469Z,1007.04
2019-01-12T10:26:58.348Z,1007.10
2019-01-12T10:27:53.494Z,1007.09
2019-01-12T10:28:52.440Z,1007.04
2019-01-12T10:29:52.470Z,1007.05
2019-01-12T10:30:52.415Z,1007.05
2019-01-12T10:31:52.433Z,1006.93
2019-01-12T10:32:52.406Z,1007.01
2019-01-12T10:33:52.440Z,1006.92
2019-01-12T10:34:52.456Z,1007.01
2019-01-12T10:35:52.376Z,1006.92
2019-01-12T10:36:52.406Z,1007.00
2019-01-12T10:37:52.352Z,1006.92
2019-01-12T10:38:52.910Z,1006.92
2019-01-12T10:39:52.356Z,1006.94
2019-01-12T10:40:52.312Z,1006.94
2019-01-12T10:41:52.318Z,1006.88
2019-01-12T10:42:52.349Z,1006.86
2019-01-12T10:43:52.306Z,1006.83
2019-01-12T10:44:52.303Z,1006.80
2019-01-12T10:45:52.249Z,1006.83
2019-01-12T10:46:52.248Z,1006.81
2019-01-12T10:47:52.247Z,1006.75
2019-01-12T10:48:52.227Z,1006.75
2019-01-12T10:49:52.212Z,1006.73
2019-01-12T10:50:52.241Z,1006.70
2019-01-12T10:51:52.184Z,1006.60
2019-01-12T10:52:52.188Z,1006.70
2019-01-12T10:53:52.166Z,1006.65
2019-01-12T10:54:52.155Z,1006.69
2019-01-12T10:55:52.177Z,1006.68
2019-01-12T10:56:52.144Z,1006.65
2019-01-12T10:57:52.122Z,1006.58
2019-01-12T10:58:52.120Z,1006.58
2019-01-12T10:59:52.107Z,1006.60
2019-01-12T11:00:52.134Z,1006.60
2019-01-12T11:01:52.085Z,1006.60
2019-01-12T11:02:52.080Z,1006.60
2019-01-12T11:03:52.057Z,1006.54
2019-01-12T11:04:52.058Z,1006.50
2019-01-12T11:05:52.064Z,1006.52
2019-01-12T11:06:52.088Z,1006.53
2019-01-12T11:07:52.037Z,1006.49
2019-01-12T11:08:51.998Z,1006.54
2019-01-12T11:09:52.006Z,1006.51
2019-01-12T11:10:51.988Z,1006.50
2019-01-12T11:11:52.013Z,1006.46
2019-01-12T11:12:51.973Z,1006.44
2019-01-12T11:13:51.962Z,1006.43
2019-01-12T11:14:51.943Z,1006.46
2019-01-12T11:15:51.929Z,1006.39
2019-01-12T11:16:51.913Z,1006.36
2019-01-12T11:17:51.935Z,1006.38
2019-01-12T11:18:51.928Z,1006.33
2019-01-12T11:19:51.886Z,1006.36
2019-01-12T11:20:51.873Z,1006.26
2019-01-12T11:21:51.872Z,1006.19
2019-01-12T11:22:51.879Z,1006.21
2019-01-12T11:23:51.874Z,1006.25
2019-01-12T11:24:51.863Z,1006.22
2019-01-12T11:25:51.815Z,1006.18
2019-01-12T11:26:51.804Z,1006.20
2019-01-12T11:27:51.800Z,1006.18
2019-01-12T11:28:51.791Z,1006.18
2019-01-12T11:29:51.821Z,1006.14
2019-01-12T11:30:51.760Z,1006.13
2019-01-12T11:31:51.746Z,1006.06
2019-01-12T11:32:51.747Z,1006.02
2019-01-12T11:33:51.749Z,1005.99
2019-01-12T11:34:51.720Z,1006.04
2019-01-12T11:35:51.771Z,1006.00
2019-01-12T11:36:51.726Z,1005.97
2019-01-12T11:37:51.680Z,1005.97
2019-01-12T11:39:12.675Z,1005.89
2019-01-12T11:39:51.674Z,1005.89
2019-01-12T11:40:51.695Z,1005.90
2019-01-12T11:41:51.649Z,1005.86
2019-01-12T11:42:51.628Z,1005.85
2019-01-12T11:43:51.620Z,1005.88
2019-01-12T11:44:51.617Z,1005.82
2019-01-12T11:45:51.627Z,1005.78
2019-01-12T11:46:52.461Z,1005.79
2019-01-12T11:47:52.431Z,1005.88
2019-01-12T11:48:51.576Z,1005.83
2019-01-12T11:49:51.580Z,1005.82
2019-01-12T11:50:51.549Z,1005.80
2019-01-12T11:51:51.607Z,1005.77
2019-01-12T11:52:51.524Z,1005.74
2019-01-12T11:53:51.513Z,1005.75
2019-01-12T11:54:51.514Z,1005.75
2019-01-12T11:55:51.494Z,1005.68
2019-01-12T11:56:51.502Z,1005.73
2019-01-12T11:57:51.505Z,1005.63
2019-01-12T11:58:51.456Z,1005.74
2019-01-12T11:59:51.475Z,1005.57
2019-01-12T12:00:51.431Z,1005.57
2019-01-12T12:01:51.422Z,1005.55
2019-01-12T12:02:51.436Z,1005.56
2019-01-12T12:03:51.445Z,1005.55
2019-01-12T12:04:51.392Z,1005.52
2019-01-12T12:05:51.384Z,1005.52